Loncopue, Argentina
Current Conditions -  °F | °C
As of 8:00 PM on Saturday 25 Oct 2014 (Local Time) from SCQP Reporting Station
Clear Clear  
Wind Chill: 64°   Ceiling: Unl
Heat Index: 64°   Visibility: 6mi
Dew Point: 50°   Wind: 7mph
Humidity: 59%   Direction: 250°WSW
Pressure: 29.88"   Gusts: NA
Location:  38.07°S, 70.62°W
Report Text: SCQP 252300Z 25006KT CAVOK 18/10 Q1012
Loading
Personal Weather Stations






























Interactive Weather Map
Tropical Storm Tracking
New forecast layout! Learn more

10-Day Weather Forecast

Advertisements
Track Severe Weather on mobile